Time;durP1;ratioP1;P1;durP2;ratioP2;P2;SDS_P1;SDS_P2;PMS_P1;PMS_P2;Temp;Humidity;BMP_temperature;BMP_pressure;BME280_temperature;BME280_humidity;BME280_pressure;Samples;Min_cycle;Max_cycle;Signal;HPM_P1;HPM_P2
2022/03/01 00:01:15;;;;;;;102.40;39.73;;;;;;;-3.62;78.34;100893.30;4195215;82;21616;-89
2022/03/01 00:07:16;;;;;;;93.00;37.17;;;;;;;-3.61;77.63;100899.75;4236556;83;21040;-88
2022/03/01 00:13:18;;;;;;;97.90;38.90;;;;;;;-3.81;78.04;100890.48;4213761;83;22271;-88
2022/03/01 00:19:19;;;;;;;97.67;40.97;;;;;;;-3.83;78.49;100899.27;4220077;83;22580;-88
2022/03/01 00:25:23;;;;;;;85.93;38.20;;;;;;;-3.99;78.16;100903.98;4172571;84;21118;-89
2022/03/01 00:31:24;;;;;;;90.90;39.67;;;;;;;-4.04;77.86;100895.33;4174387;84;21050;-87
2022/03/01 00:37:26;;;;;;;103.47;41.40;;;;;;;-4.10;78.34;100886.91;4175556;84;21051;-91
2022/03/01 00:43:28;;;;;;;99.97;40.63;;;;;;;-4.16;77.88;100882.50;4173563;84;21045;-90
2022/03/01 00:49:30;;;;;;;100.27;41.47;;;;;;;-4.33;78.52;100887.44;4172570;84;21653;-88
2022/03/01 00:55:36;;;;;;;89.77;41.97;;;;;;;-4.43;78.95;100881.33;4175296;84;21015;-87
2022/03/01 01:01:40;;;;;;;95.93;41.43;;;;;;;-4.50;78.78;100877.97;4173648;85;21617;-87
2022/03/01 01:07:42;;;;;;;102.63;43.00;;;;;;;-4.57;79.28;100883.14;4173163;84;21590;-87
2022/03/01 01:13:45;;;;;;;99.20;42.93;;;;;;;-4.58;79.42;100884.16;4173740;84;21078;-89
2022/03/01 01:19:46;;;;;;;98.67;41.93;;;;;;;-4.69;78.64;100883.63;4187115;83;21669;-88
2022/03/01 01:25:47;;;;;;;94.43;41.87;;;;;;;-4.82;79.12;100886.52;4209396;82;21044;-88
2022/03/01 01:31:50;;;;;;;92.80;38.53;;;;;;;-4.90;79.59;100892.98;4218381;83;21843;-88
2022/03/01 01:37:52;;;;;;;90.07;41.70;;;;;;;-4.98;79.45;100896.80;4225933;83;20973;-88
2022/03/01 01:43:53;;;;;;;94.10;39.57;;;;;;;-4.89;80.59;100899.43;4217990;83;20992;-89
2022/03/01 01:49:55;;;;;;;115.40;51.10;;;;;;;-4.79;79.74;100904.77;4218502;83;21607;-92
2022/03/01 01:55:56;;;;;;;122.50;51.27;;;;;;;-4.85;79.82;100891.78;4211680;83;21068;-88
2022/03/01 02:01:58;;;;;;;115.73;49.30;;;;;;;-4.92;79.85;100889.75;4220122;82;21028;-90
2022/03/01 02:08:00;;;;;;;116.33;48.23;;;;;;;-5.01;80.36;100889.24;4217869;83;21072;-89
2022/03/01 02:14:03;;;;;;;98.37;44.00;;;;;;;-5.00;80.46;100883.39;4218386;83;21556;-89
2022/03/01 02:20:09;;;;;;;120.60;46.80;;;;;;;-5.04;80.87;100883.03;4216913;82;21554;-89
2022/03/01 02:26:12;;;;;;;111.97;46.43;;;;;;;-5.10;80.19;100889.80;4186601;83;21074;-89
2022/03/01 02:32:13;;;;;;;111.67;46.90;;;;;;;-5.27;80.19;100892.81;4184883;83;21066;-91
2022/03/01 02:38:15;;;;;;;120.20;48.10;;;;;;;-5.36;80.39;100887.50;4182404;83;22234;-90
2022/03/01 02:44:17;;;;;;;103.83;45.43;;;;;;;-5.44;80.71;100879.80;4181729;83;21058;-91
2022/03/01 02:50:18;;;;;;;106.93;45.60;;;;;;;-5.46;80.11;100876.53;4184555;83;21132;-90
2022/03/01 02:56:20;;;;;;;110.23;47.13;;;;;;;-5.47;80.94;100874.91;4171787;82;39566;-90
2022/03/01 03:02:22;;;;;;;114.47;47.17;;;;;;;-5.56;80.19;100874.94;4188318;83;21020;-90
2022/03/01 03:08:24;;;;;;;100.90;42.43;;;;;;;-5.72;80.64;100875.54;4217823;83;21070;-91
2022/03/01 03:14:25;;;;;;;110.50;45.83;;;;;;;-5.78;81.24;100872.44;4190473;82;21102;-89
2022/03/01 03:20:27;;;;;;;106.13;45.37;;;;;;;-5.74;81.11;100881.10;4180350;83;21114;-91
2022/03/01 03:26:30;;;;;;;108.43;44.13;;;;;;;-5.71;81.54;100880.66;4149999;84;21054;-92
2022/03/01 03:32:32;;;;;;;100.73;43.30;;;;;;;-5.77;80.99;100878.06;4151520;84;21048;-90
2022/03/01 03:38:33;;;;;;;105.63;42.50;;;;;;;-5.89;80.98;100875.88;4148230;84;21162;-92
2022/03/01 03:44:35;;;;;;;96.70;41.17;;;;;;;-5.99;81.12;100878.23;4143441;84;21725;-92
2022/03/01 03:50:37;;;;;;;96.90;42.33;;;;;;;-5.85;81.80;100872.55;4147326;84;21011;-94
2022/03/01 03:56:38;;;;;;;98.60;38.37;;;;;;;-5.95;81.00;100865.57;4146663;84;21052;-91
2022/03/01 04:02:44;;;;;;;92.33;39.17;;;;;;;-6.10;80.97;100865.64;4151873;84;21062;-93
2022/03/01 04:08:45;;;;;;;85.93;35.93;;;;;;;-6.19;81.44;100854.98;4144561;84;21071;-91
2022/03/01 04:14:47;;;;;;;92.47;39.70;;;;;;;-6.14;81.39;100856.47;4148160;84;21046;-90
2022/03/01 04:20:48;;;;;;;102.10;43.53;;;;;;;-6.21;81.10;100847.20;4149761;83;21116;-92
2022/03/01 04:26:50;;;;;;;77.93;34.87;;;;;;;-6.37;80.87;100841.12;4201418;83;22479;-91
2022/03/01 04:32:51;;;;;;;89.10;36.00;;;;;;;-6.50;81.11;100845.27;4199534;83;21036;-90
2022/03/01 04:38:53;;;;;;;80.53;34.07;;;;;;;-6.51;81.43;100835.62;4193971;83;21155;-91
2022/03/01 04:44:54;;;;;;;86.67;35.53;;;;;;;-6.45;81.29;100825.41;4192808;83;22308;-93
2022/03/01 04:50:56;;;;;;;84.07;35.07;;;;;;;-6.54;81.17;100822.23;4191496;83;21074;-90
2022/03/01 04:56:58;;;;;;;79.67;35.23;;;;;;;-6.62;81.29;100813.69;4194910;83;21096;-90
2022/03/01 05:03:00;;;;;;;89.27;38.07;;;;;;;-6.56;81.97;100820.80;4202800;83;22350;-93
2022/03/01 05:09:02;;;;;;;82.00;34.93;;;;;;;-6.58;81.32;100820.23;4217145;83;21066;-90
2022/03/01 05:15:04;;;;;;;78.17;33.33;;;;;;;-6.73;81.19;100815.74;4197881;82;21126;-89
2022/03/01 05:21:06;;;;;;;76.97;32.47;;;;;;;-6.82;81.49;100815.22;4180225;83;21093;-90
2022/03/01 05:27:08;;;;;;;83.50;35.10;;;;;;;-6.81;81.58;100818.68;4193826;83;21072;-91
2022/03/01 05:33:09;;;;;;;90.27;35.30;;;;;;;-6.90;81.42;100822.16;4122054;84;21091;-91
2022/03/01 05:39:11;;;;;;;79.10;34.17;;;;;;;-6.98;81.62;100814.43;4125257;84;21059;-90
2022/03/01 05:45:12;;;;;;;90.37;35.30;;;;;;;-7.01;81.64;100818.86;4179321;83;21041;-92
2022/03/01 05:51:15;;;;;;;89.23;33.27;;;;;;;-7.01;81.73;100825.52;4193657;83;21056;-91
2022/03/01 05:57:17;;;;;;;96.80;33.80;;;;;;;-7.01;81.96;100828.69;4210500;83;20987;-90
2022/03/01 06:03:19;;;;;;;104.57;38.10;;;;;;;-6.94;82.29;100838.24;4195878;83;21067;-92
2022/03/01 06:09:22;;;;;;;106.87;38.57;;;;;;;-6.81;82.31;100838.14;4196990;83;21032;-91
2022/03/01 06:15:27;;;;;;;115.47;40.07;;;;;;;-6.68;82.51;100831.38;4189568;83;21152;-93
2022/03/01 06:21:30;;;;;;;106.43;40.53;;;;;;;-6.49;83.03;100834.89;4202744;82;21086;-90
2022/03/01 06:27:31;;;;;;;89.23;35.40;;;;;;;-6.12;83.46;100845.08;4199690;83;21086;-92
2022/03/01 06:33:33;;;;;;;94.10;38.97;;;;;;;-5.53;84.01;100840.59;4198650;83;21064;-91
2022/03/01 06:39:35;;;;;;;86.77;37.67;;;;;;;-4.87;84.28;100846.59;4204769;83;21070;-92
2022/03/01 06:45:37;;;;;;;81.97;35.27;;;;;;;-4.15;84.48;100850.69;4195444;83;21105;-92
2022/03/01 06:51:38;;;;;;;83.73;35.80;;;;;;;-3.49;84.53;100852.85;4193960;83;21070;-92
2022/03/01 06:57:41;;;;;;;81.87;38.03;;;;;;;-2.99;84.69;100844.41;4192387;83;21078;-93
2022/03/01 07:03:43;;;;;;;101.27;46.27;;;;;;;-2.74;84.14;100851.53;4188432;83;22267;-91
2022/03/01 07:09:58;;;;;;;130.77;57.37;;;;;;;-2.37;84.72;100847.83;4182426;83;21088;-89
2022/03/01 07:16:16;;;;;;;101.63;49.07;;;;;;;-2.00;84.30;100844.86;4190966;83;21009;-90
2022/03/01 07:22:19;;;;;;;103.17;41.33;;;;;;;-1.63;84.48;100852.61;4206091;83;21196;-89
2022/03/01 07:28:27;;;;;;;90.70;41.00;;;;;;;-1.34;83.49;100843.27;4206053;82;21062;-91
2022/03/01 07:34:28;;;;;;;86.67;38.73;;;;;;;-1.05;83.90;100848.66;4189989;83;21080;-90
2022/03/01 07:40:31;;;;;;;68.97;33.27;;;;;;;-0.77;83.05;100844.38;4205806;83;22052;-90
2022/03/01 07:46:33;;;;;;;68.13;29.10;;;;;;;-0.48;82.92;100841.64;4198926;83;21081;-91
2022/03/01 07:52:34;;;;;;;52.90;25.10;;;;;;;-0.05;82.87;100844.05;4189591;83;21045;-92
2022/03/01 07:58:36;;;;;;;47.35;23.30;;;;;;;0.44;82.36;100840.52;4136802;85;21095;-90
2022/03/01 08:04:41;;;;;;;43.80;21.40;;;;;;;1.27;81.19;100823.14;4093313;85;21090;-89
2022/03/01 08:10:43;;;;;;;34.13;15.97;;;;;;;1.27;81.19;100823.14;4127016;85;21170;-90
2022/03/01 08:16:45;;;;;;;38.48;18.00;;;;;;;1.76;80.99;100813.92;4109886;84;21039;-90
2022/03/01 08:22:47;;;;;;;39.42;17.25;;;;;;;2.09;80.08;100812.77;4114864;84;21111;-90
2022/03/01 08:28:49;;;;;;;37.80;18.77;;;;;;;2.25;75.20;100810.82;4126678;84;21090;-90
2022/03/01 08:34:51;;;;;;;39.10;17.45;;;;;;;2.17;77.47;100800.58;4123182;85;21077;-91
2022/03/01 08:40:54;;;;;;;37.55;18.07;;;;;;;2.96;77.90;100791.78;4102325;85;21086;-91
2022/03/01 08:47:02;;;;;;;28.60;13.53;;;;;;;3.26;76.44;100789.37;4087395;86;21625;-91
2022/03/01 08:53:06;;;;;;;28.70;14.40;;;;;;;3.89;76.89;100786.31;4127490;85;21071;-90
2022/03/01 08:59:09;;;;;;;23.02;11.70;;;;;;;4.55;74.95;100788.48;4129932;85;21060;-89
2022/03/01 09:05:12;;;;;;;21.57;11.10;;;;;;;4.63;73.15;100782.95;4109069;85;21078;-89
2022/03/01 09:11:15;;;;;;;25.97;12.50;;;;;;;4.96;74.31;100782.47;4105569;85;21118;-92
2022/03/01 09:17:17;;;;;;;19.23;11.48;;;;;;;5.74;74.41;100767.81;4115658;85;21022;-89
2022/03/01 09:23:18;;;;;;;20.43;11.15;;;;;;;6.14;71.12;100771.67;4120937;84;21682;-91
2022/03/01 09:29:21;;;;;;;18.73;7.87;;;;;;;6.87;68.45;100761.38;4115669;85;21566;-89
2022/03/01 09:35:23;;;;;;;24.02;10.23;;;;;;;7.27;64.32;100755.48;4125923;85;21082;-88
2022/03/01 09:41:26;;;;;;;18.07;6.83;;;;;;;7.22;65.80;100745.53;4118585;84;21555;-90
2022/03/01 09:47:28;;;;;;;14.85;6.30;;;;;;;7.27;63.91;100743.23;4105065;85;21562;-91
2022/03/01 09:53:31;;;;;;;18.87;9.15;;;;;;;7.62;64.06;100726.78;4123661;85;21102;-90
2022/03/01 09:59:34;;;;;;;12.30;5.97;;;;;;;7.87;61.61;100722.00;4109758;85;21064;-89
2022/03/01 10:05:40;;;;;;;11.60;5.08;;;;;;;7.99;54.61;100726.83;4120886;85;21076;-89
2022/03/01 10:11:42;;;;;;;13.38;7.10;;;;;;;8.05;58.66;100705.11;4123791;85;21070;-90
2022/03/01 10:17:46;;;;;;;14.33;7.72;;;;;;;8.17;52.67;100707.23;4109594;85;22072;-90
2022/03/01 10:23:52;;;;;;;12.20;7.28;;;;;;;8.01;55.63;100695.97;4127226;84;21054;-89
2022/03/01 10:29:54;;;;;;;17.23;8.80;;;;;;;8.19;53.08;100701.69;4236538;82;21099;-90
2022/03/01 10:35:59;;;;;;;20.62;8.63;;;;;;;8.51;53.92;100702.67;4153244;83;73031;-88
2022/03/01 10:42:04;;;;;;;17.42;7.78;;;;;;;8.79;55.18;100693.59;4168437;83;21565;-90
2022/03/01 10:48:09;;;;;;;13.88;7.10;;;;;;;9.28;54.56;100684.84;4163403;83;21577;-89
2022/03/01 10:54:10;;;;;;;12.55;7.08;;;;;;;9.39;54.56;100684.19;4167003;83;21074;-88
2022/03/01 11:00:12;;;;;;;11.05;6.25;;;;;;;9.39;50.55;100664.23;4159726;83;21632;-89
2022/03/01 11:06:19;;;;;;;16.15;7.53;;;;;;;8.83;51.79;100668.05;4167821;84;21709;-92
2022/03/01 11:12:23;;;;;;;12.82;6.20;;;;;;;8.47;46.86;100656.66;4161266;84;21076;-89
2022/03/01 11:18:44;;;;;;;13.18;7.50;;;;;;;8.09;50.25;100643.92;4166641;83;21079;-90
2022/03/01 11:24:46;;;;;;;15.28;7.78;;;;;;;7.98;49.45;100628.42;4171492;83;21059;-90
2022/03/01 11:30:51;;;;;;;15.40;7.37;;;;;;;8.13;49.30;100623.08;4244575;83;21070;-90
2022/03/01 11:36:57;;;;;;;13.22;7.33;;;;;;;8.58;47.37;100616.21;4245497;82;21122;-90
2022/03/01 11:43:16;;;;;;;13.80;7.37;;;;;;;8.69;47.84;100603.84;4242714;82;21043;-88
2022/03/01 11:49:21;;;;;;;12.53;7.50;;;;;;;8.75;48.91;100596.52;4241484;84;21047;-88
2022/03/01 11:55:39;;;;;;;16.97;8.53;;;;;;;8.38;47.60;100584.12;4245128;83;21944;-88
2022/03/01 12:08:20;;;;;;;16.87;8.20;;;;;;;8.10;46.68;100562.36;4241005;84;21007;-89
2022/03/01 12:14:44;;;;;;;18.10;8.55;;;;;;;7.72;44.36;100564.30;4251906;83;21076;-88
2022/03/01 12:20:46;;;;;;;13.38;6.90;;;;;;;7.03;44.22;100557.61;4222613;84;38542;-88
2022/03/01 12:26:53;;;;;;;17.35;7.65;;;;;;;6.76;44.60;100544.98;4094173;86;21114;-89
2022/03/01 12:32:58;;;;;;;23.38;8.13;;;;;;;6.65;43.43;100531.94;4107193;86;21114;-88
2022/03/01 12:39:16;;;;;;;15.85;7.30;;;;;;;6.52;42.97;100521.39;4099280;86;21081;-89
2022/03/01 12:45:32;;;;;;;11.25;6.10;;;;;;;6.13;44.17;100498.98;4116869;86;21078;-88
2022/03/01 12:51:37;;;;;;;10.50;5.20;;;;;;;6.06;43.91;100493.74;4101481;86;21071;-89
2022/03/01 12:58:00;;;;;;;;;;;;;;;5.90;42.67;100482.98;4094559;86;21046;-89
2022/03/01 13:04:14;;;;;;;13.00;5.62;;;;;;;5.62;43.51;100474.64;4139570;86;20192;-89
2022/03/01 13:10:37;;;;;;;12.40;6.35;;;;;;;5.68;41.26;100471.51;4199651;84;21035;-90
2022/03/01 13:16:42;;;;;;;14.53;5.60;;;;;;;5.46;42.76;100455.72;4321046;80;32062;-91
2022/03/01 13:22:43;;;;;;;11.50;4.40;;;;;;;5.27;42.22;100450.98;4379666;79;21109;-90
2022/03/01 13:28:48;;;;;;;7.62;3.77;;;;;;;5.11;41.91;100440.19;4368684;79;21050;-89
2022/03/01 13:35:08;;;;;;;9.60;3.83;;;;;;;5.46;41.89;100428.55;4378154;79;21286;-89
2022/03/01 13:41:31;;;;;;;7.35;3.60;;;;;;;5.72;42.50;100420.05;4371757;79;21028;-89
2022/03/01 13:47:44;;;;;;;6.25;3.27;;;;;;;5.61;41.86;100412.70;4371068;81;21098;-90
2022/03/01 14:07:19;;;;;;;11.25;4.60;;;;;;;5.09;41.56;100399.00;4358710;79;21010;-89
2022/03/01 14:13:38;;;;;;;12.00;5.10;;;;;;;4.91;41.70;100402.63;4362966;79;21042;-89
2022/03/01 14:20:21;;;;;;;11.28;4.37;;;;;;;4.66;41.71;100391.76;4370153;81;21859;-89
2022/03/01 14:26:33;;;;;;;11.05;4.47;;;;;;;4.56;41.57;100390.05;4374451;80;21567;-89
2022/03/01 14:32:39;;;;;;;14.33;5.70;;;;;;;4.55;41.45;100387.64;4385633;80;21530;-89
2022/03/01 14:38:58;;;;;;;8.18;4.42;;;;;;;4.39;40.35;100385.78;4385828;79;21037;-89
2022/03/01 14:45:08;;;;;;;11.40;4.67;;;;;;;4.47;41.04;100378.31;4383086;79;21355;-90
2022/03/01 14:51:14;;;;;;;13.18;5.58;;;;;;;4.54;40.94;100369.77;4388198;79;21087;-89
2022/03/01 14:57:24;;;;;;;12.35;5.60;;;;;;;4.46;41.26;100369.91;4383294;80;21074;-91
2022/03/01 15:03:32;;;;;;;15.08;6.78;;;;;;;4.29;41.18;100359.42;4377008;80;21579;-90
2022/03/01 15:09:36;;;;;;;15.83;6.62;;;;;;;4.12;41.33;100349.73;4382383;81;21498;-89
2022/03/01 15:15:41;;;;;;;18.05;7.37;;;;;;;3.94;41.24;100343.81;4377182;80;21036;-90
2022/03/01 15:22:11;;;;;;;18.62;7.87;;;;;;;3.78;41.40;100337.88;4389566;80;21053;-91
2022/03/01 15:28:15;;;;;;;23.47;7.42;;;;;;;3.62;41.52;100331.10;4382304;80;21125;-91
2022/03/01 15:34:26;;;;;;;10.82;5.83;;;;;;;3.40;41.54;100328.80;4380751;79;21043;-90
2022/03/01 15:40:41;;;;;;;14.95;7.00;;;;;;;3.24;41.61;100326.88;4382491;79;21060;-90
2022/03/01 15:46:49;;;;;;;15.30;7.17;;;;;;;3.16;41.63;100324.84;4380809;81;21046;-90
2022/03/01 15:52:51;;;;;;;20.08;7.22;;;;;;;3.02;41.72;100324.75;4386473;80;20991;-90
2022/03/01 15:58:55;;;;;;;24.87;12.03;;;;;;;2.90;42.04;100325.75;4383885;80;21061;-89
2022/03/01 16:05:04;;;;;;;29.20;12.03;;;;;;;2.72;42.28;100330.62;4381783;80;21507;-89
2022/03/01 16:11:08;;;;;;;24.05;8.73;;;;;;;2.58;42.45;100331.61;4375492;80;21050;-89
2022/03/01 16:17:10;;;;;;;32.53;10.28;;;;;;;2.43;42.65;100327.20;4376476;79;21521;-91
2022/03/01 16:23:21;;;;;;;37.40;15.63;;;;;;;2.30;42.76;100334.64;4381079;79;21046;-91
2022/03/01 16:29:24;;;;;;;65.03;26.07;;;;;;;2.08;43.01;100331.68;4372927;79;21605;-90
2022/03/01 16:35:25;;;;;;;51.53;23.00;;;;;;;1.76;43.50;100338.21;4393439;80;21054;-90
2022/03/01 16:41:39;;;;;;;46.80;22.02;;;;;;;1.56;43.68;100333.81;4386677;80;21629;-90
2022/03/01 16:48:31;;;;;;;;;;;;;;;;;;;;;
2022/03/01 16:54:40;;;;;;;33.33;15.85;;;;;;;0.99;44.30;100331.55;4359102;80;21199;-90
2022/03/01 17:00:41;;;;;;;38.88;17.42;;;;;;;0.59;45.00;100338.53;4391268;80;21036;-91
2022/03/01 17:06:42;;;;;;;63.00;25.50;;;;;;;0.28;45.36;100335.17;4381798;79;21037;-91
2022/03/01 17:12:44;;;;;;;54.33;21.55;;;;;;;-0.01;45.98;100337.68;4391748;79;22240;-89
2022/03/01 17:18:45;;;;;;;55.78;19.82;;;;;;;-0.39;46.99;100336.12;4382328;79;21533;-91
2022/03/01 17:24:47;;;;;;;50.08;18.95;;;;;;;-0.39;46.99;100336.12;4288214;82;21075;-90
2022/03/01 17:30:48;;;;;;;46.15;19.15;;;;;;;-0.62;47.54;100336.15;4348432;79;21106;-90
2022/03/01 17:36:51;;;;;;;54.50;20.47;;;;;;;-0.77;47.94;100331.31;4353892;79;21093;-91
2022/03/01 17:42:52;;;;;;;48.70;20.85;;;;;;;-0.90;48.38;100328.61;4369832;79;21038;-90
2022/03/01 17:48:55;;;;;;;47.75;21.37;;;;;;;-1.09;47.36;100322.14;4365316;79;21276;-90
2022/03/01 17:54:59;;;;;;;66.70;28.07;;;;;;;-1.25;47.80;100329.11;4370755;79;21567;-90
2022/03/01 18:01:00;;;;;;;77.23;29.77;;;;;;;-1.32;48.92;100328.54;4375317;79;21010;-92
2022/03/01 18:07:02;;;;;;;69.30;25.93;;;;;;;-1.51;49.19;100330.91;4358506;79;21034;-91
2022/03/01 18:13:04;;;;;;;70.57;27.53;;;;;;;-1.72;50.48;100333.23;4366556;79;21059;-91
2022/03/01 18:19:06;;;;;;;81.13;29.47;;;;;;;-1.75;51.48;100325.70;4363228;79;21411;-91
2022/03/01 18:25:09;;;;;;;97.17;37.87;;;;;;;-1.86;50.96;100325.39;4366294;79;21082;-89
2022/03/01 18:31:12;;;;;;;79.13;31.17;;;;;;;-1.93;51.33;100319.47;4366517;79;22097;-92
2022/03/01 18:37:13;;;;;;;99.00;35.17;;;;;;;-1.95;52.59;100329.64;4352090;79;21062;-91
2022/03/01 18:43:16;;;;;;;95.20;37.70;;;;;;;-1.99;52.61;100327.22;4343644;79;21681;-90
2022/03/01 18:49:18;;;;;;;106.50;40.20;;;;;;;-2.08;53.04;100322.05;4350769;79;21125;-93
2022/03/01 18:55:20;;;;;;;116.90;42.47;;;;;;;-2.16;53.00;100326.05;4361622;79;21070;-90
2022/03/01 19:01:25;;;;;;;132.37;46.60;;;;;;;-2.23;53.33;100326.00;4355435;79;21026;-91
2022/03/01 19:07:33;;;;;;;113.13;42.97;;;;;;;-2.31;55.12;100329.98;4355117;79;21065;-92
2022/03/01 19:13:30;;;;;;;138.93;53.67;;;;;;;-2.51;53.80;100327.70;4353565;79;21119;-89
2022/03/01 19:19:31;;;;;;;154.47;58.37;;;;;;;-2.65;55.44;100329.20;4351747;79;21644;-90
2022/03/01 19:25:33;;;;;;;160.87;57.03;;;;;;;-2.74;54.99;100332.88;4345193;79;22056;-89
2022/03/01 19:31:35;;;;;;;154.10;56.57;;;;;;;-2.80;55.23;100332.56;4349510;79;21035;-90
2022/03/01 19:37:37;;;;;;;130.37;51.87;;;;;;;-2.84;55.14;100333.33;4376810;79;21046;-89
2022/03/01 19:43:39;;;;;;;174.20;71.83;;;;;;;-2.89;55.26;100326.06;4345833;79;21090;-91
2022/03/01 19:49:41;;;;;;;209.77;82.47;;;;;;;-2.90;55.13;100322.30;4349429;79;21040;-90
2022/03/01 19:55:44;;;;;;;176.97;70.37;;;;;;;-2.91;55.82;100324.70;4363576;79;21542;-90
2022/03/01 20:01:46;;;;;;;165.67;61.57;;;;;;;-3.00;56.45;100325.69;4359530;79;21039;-89
2022/03/01 20:07:48;;;;;;;204.63;72.23;;;;;;;-3.08;57.87;100320.80;4369042;79;21022;-91
2022/03/01 20:13:52;;;;;;;152.33;56.63;;;;;;;-3.13;57.35;100310.58;4356213;79;21043;-89
2022/03/01 20:19:54;;;;;;;145.63;54.87;;;;;;;-3.37;57.26;100305.50;4352148;79;21051;-89
2022/03/01 20:25:56;;;;;;;129.10;53.80;;;;;;;-3.41;57.55;100303.59;4372930;79;21034;-89
2022/03/01 20:31:58;;;;;;;137.63;54.43;;;;;;;-3.56;57.33;100298.91;4377609;79;21011;-89
2022/03/01 20:37:59;;;;;;;163.13;62.40;;;;;;;-3.60;58.76;100296.44;4380219;79;21243;-91
2022/03/01 20:44:01;;;;;;;176.77;66.43;;;;;;;-3.61;58.83;100299.37;4371614;79;21003;-89
2022/03/01 20:50:06;;;;;;;143.67;56.23;;;;;;;-3.67;59.01;100297.18;4370344;79;21613;-88
2022/03/01 20:56:13;;;;;;;127.90;52.37;;;;;;;-3.74;59.53;100289.86;4378705;79;21089;-90
2022/03/01 21:02:15;;;;;;;143.57;56.17;;;;;;;-3.75;58.85;100279.41;4373350;79;21125;-87
2022/03/01 21:08:17;;;;;;;114.70;44.37;;;;;;;-3.72;60.02;100281.58;4381072;79;21119;-88
2022/03/01 21:14:19;;;;;;;118.90;46.90;;;;;;;-3.67;61.66;100275.77;4372325;79;21125;-86
2022/03/01 21:20:24;;;;;;;119.67;50.43;;;;;;;-3.67;61.93;100282.98;4374409;79;21074;-90
2022/03/01 21:26:25;;;;;;;136.10;53.47;;;;;;;-3.58;62.12;100283.63;4370843;79;21090;-91
2022/03/01 21:32:29;;;;;;;131.07;52.20;;;;;;;-3.59;62.78;100268.63;4348231;79;21065;-87
2022/03/01 21:38:31;;;;;;;143.67;59.73;;;;;;;-3.54;63.00;100272.67;4375815;79;21027;-87
2022/03/01 21:44:32;;;;;;;155.60;64.37;;;;;;;-3.71;62.07;100261.25;4346515;79;21018;-88
2022/03/01 21:50:35;;;;;;;158.13;61.30;;;;;;;-3.95;61.59;100264.47;4352540;79;21034;-87
2022/03/01 21:56:40;;;;;;;174.35;66.20;;;;;;;-4.16;60.94;100259.40;4338594;79;21074;-88
2022/03/01 22:02:42;;;;;;;141.10;56.33;;;;;;;-4.30;61.62;100261.34;4358707;79;21017;-91
2022/03/01 22:08:46;;;;;;;107.32;43.33;;;;;;;-4.38;62.81;100252.41;4357031;79;21066;-88
2022/03/01 22:14:49;;;;;;;167.77;66.40;;;;;;;-4.44;62.56;100246.20;4368216;79;21063;-90
2022/03/01 22:20:51;;;;;;;179.93;68.40;;;;;;;-4.49;62.89;100250.14;4370492;79;21356;-90
2022/03/01 22:26:52;;;;;;;192.90;75.43;;;;;;;-4.61;62.83;100249.44;4376302;79;21052;-88
2022/03/01 22:32:54;;;;;;;183.93;69.67;;;;;;;-4.75;63.81;100244.16;4405586;79;22054;-89
2022/03/01 22:38:56;;;;;;;177.20;68.40;;;;;;;-4.81;62.65;100243.27;4410926;79;21126;-91
2022/03/01 22:44:58;;;;;;;203.20;76.43;;;;;;;-4.82;63.36;100234.71;4390492;79;21091;-89
2022/03/01 22:51:00;;;;;;;202.70;79.10;;;;;;;-4.79;64.63;100229.66;4402055;79;21058;-89
2022/03/01 22:57:04;;;;;;;227.30;92.47;;;;;;;-4.82;64.72;100224.81;4402821;79;22203;-92
2022/03/01 23:03:10;;;;;;;209.97;81.87;;;;;;;-4.91;64.47;100221.77;4398433;79;21043;-91
2022/03/01 23:09:11;;;;;;;;;;;;;;;-5.00;65.25;100221.91;4393657;79;21093;-90
2022/03/01 23:15:14;;;;;;;210.97;80.27;;;;;;;-5.10;66.39;100213.73;4406294;79;20178;-89
2022/03/01 23:21:16;;;;;;;204.90;80.80;;;;;;;-5.17;65.84;100214.95;4392416;79;21042;-90
2022/03/01 23:27:18;;;;;;;219.17;86.23;;;;;;;-5.29;66.06;100201.67;4403589;79;21026;-93
2022/03/01 23:33:20;;;;;;;206.90;79.87;;;;;;;-5.33;66.08;100197.07;4400826;79;21050;-90
2022/03/01 23:39:21;;;;;;;194.17;79.17;;;;;;;-5.39;66.66;100188.70;4383368;79;21623;-89
2022/03/01 23:45:23;;;;;;;200.43;79.13;;;;;;;-5.52;66.73;100179.67;4394540;79;21014;-91
2022/03/01 23:51:25;;;;;;;197.87;81.90;;;;;;;-5.59;66.59;100183.04;4402403;79;21083;-90
2022/03/01 23:57:26;;;;;;;195.63;78.23;;;;;;;-5.69;66.95;100173.52;4406506;79;21026;-91
